createdAt,value
2019-04-27T00:01:54.299Z,7.40
2019-04-27T00:07:08.240Z,8.20
2019-04-27T00:12:22.107Z,7.90
2019-04-27T00:17:49.407Z,8.53
2019-04-27T00:22:58.673Z,9.23
2019-04-27T00:28:05.938Z,10.30
2019-04-27T00:33:13.766Z,8.93
2019-04-27T00:38:30.675Z,9.27
2019-04-27T00:43:38.744Z,9.77
2019-04-27T00:48:46.264Z,9.73
2019-04-27T00:53:55.049Z,9.83
2019-04-27T00:59:23.902Z,9.33
2019-04-27T01:04:34.022Z,9.63
2019-04-27T01:09:42.769Z,8.83
2019-04-27T01:14:50.422Z,9.20
2019-04-27T01:19:59.473Z,9.97
2019-04-27T01:25:08.767Z,9.57
2019-04-27T01:30:31.092Z,8.60
2019-04-27T01:35:39.107Z,9.97
2019-04-27T01:40:46.608Z,8.23
2019-04-27T01:45:53.833Z,8.13
2019-04-27T01:51:01.324Z,9.00
2019-04-27T01:56:09.240Z,8.53
2019-04-27T02:01:50.441Z,8.83
2019-04-27T02:06:59.387Z,7.87
2019-04-27T02:12:06.925Z,8.03
2019-04-27T02:17:14.398Z,7.87
2019-04-27T02:22:21.690Z,7.77
2019-04-27T02:27:30.674Z,7.33
2019-04-27T02:32:56.748Z,7.83
2019-04-27T02:38:04.128Z,7.07
2019-04-27T02:43:13.061Z,7.03
2019-04-27T02:48:20.451Z,6.80
2019-04-27T02:53:45.167Z,7.20
2019-04-27T02:58:52.831Z,7.80
2019-04-27T03:04:00.629Z,7.70
2019-04-27T03:09:10.507Z,8.73
2019-04-27T03:14:40.453Z,8.23
2019-04-27T03:19:52.696Z,9.43
2019-04-27T03:25:32.065Z,9.53
2019-04-27T03:30:42.376Z,8.93
2019-04-27T03:35:51.608Z,9.03
2019-04-27T03:40:56.765Z,9.20
2019-04-27T03:46:04.385Z,9.50
2019-04-27T03:51:26.403Z,9.73
2019-04-27T03:56:36.360Z,9.57
2019-04-27T04:01:43.951Z,10.30
2019-04-27T04:06:51.527Z,9.87
2019-04-27T04:12:05.162Z,9.50
2019-04-27T04:17:15.281Z,10.57
2019-04-27T04:22:22.737Z,10.40
2019-04-27T04:27:30.145Z,10.97
2019-04-27T04:32:39.525Z,10.63
2019-04-27T04:37:46.627Z,11.07
2019-04-27T04:43:03.953Z,10.60
2019-04-27T04:48:19.849Z,10.77
2019-04-27T04:53:29.114Z,10.73
2019-04-27T04:58:36.159Z,10.87
2019-04-27T05:03:43.560Z,10.43
2019-04-27T05:08:50.829Z,10.57
2019-04-27T05:14:01.245Z,11.17
2019-04-27T05:19:07.363Z,11.00
2019-04-27T05:24:14.759Z,10.70
2019-04-27T05:29:22.042Z,10.07
2019-04-27T05:34:29.602Z,9.90
2019-04-27T05:39:38.749Z,9.70
2019-04-27T05:45:45.857Z,9.63
2019-04-27T05:50:58.837Z,10.30
2019-04-27T05:56:02.220Z,9.80
2019-04-27T06:01:11.305Z,9.57
2019-04-27T06:06:19.737Z,9.63
2019-04-27T06:11:28.654Z,9.90
2019-04-27T06:16:36.156Z,10.87
2019-04-27T06:21:43.504Z,10.37
2019-04-27T06:26:50.754Z,11.50
2019-04-27T06:31:59.322Z,11.60
2019-04-27T06:37:06.879Z,11.77
2019-04-27T06:42:18.186Z,11.97
2019-04-27T06:47:23.146Z,10.73
2019-04-27T06:52:30.503Z,10.77
2019-04-27T06:57:41.227Z,11.33
2019-04-27T07:02:49.380Z,11.13
2019-04-27T07:07:56.806Z,11.77
2019-04-27T07:13:04.057Z,11.30
2019-04-27T07:18:11.525Z,10.87
2019-04-27T07:23:20.900Z,11.77
2019-04-27T07:28:28.662Z,11.90
2019-04-27T07:33:36.148Z,11.87
2019-04-27T07:38:43.484Z,12.10
2019-04-27T07:43:59.691Z,12.23
2019-04-27T07:49:07.087Z,11.33
2019-04-27T07:54:14.495Z,13.13
2019-04-27T07:59:21.885Z,11.80
2019-04-27T08:04:29.309Z,12.63
2019-04-27T08:09:36.685Z,13.00
2019-04-27T08:14:43.957Z,14.50
2019-04-27T08:19:51.310Z,16.43
2019-04-27T08:24:59.492Z,15.90
2019-04-27T08:30:16.162Z,17.27
2019-04-27T08:35:24.376Z,16.07
2019-04-27T08:40:31.726Z,16.60
2019-04-27T08:45:39.321Z,16.03
2019-04-27T08:50:48.537Z,15.67
2019-04-27T08:55:55.658Z,16.20
2019-04-27T09:01:02.953Z,17.77
2019-04-27T09:06:12.153Z,17.03
2019-04-27T09:11:41.067Z,18.17
2019-04-27T09:17:10.015Z,16.50
2019-04-27T09:22:19.300Z,16.67
2019-04-27T09:27:26.436Z,15.93
2019-04-27T09:32:33.846Z,15.27
2019-04-27T09:37:42.120Z,15.07
2019-04-27T09:42:49.419Z,15.60
2019-04-27T09:47:58.000Z,16.53
2019-04-27T09:53:06.404Z,15.03
2019-04-27T09:58:13.904Z,16.00
2019-04-27T10:03:21.214Z,17.33
2019-04-27T10:08:28.624Z,17.10
2019-04-27T10:13:36.428Z,18.00
2019-04-27T10:18:45.734Z,17.55
2019-04-27T10:23:52.947Z,16.40
2019-04-27T10:29:00.359Z,15.33
2019-04-27T10:34:07.752Z,14.60
2019-04-27T10:39:17.062Z,16.83
2019-04-27T10:44:24.520Z,16.07
2019-04-27T10:49:32.756Z,15.83
2019-04-27T10:54:40.085Z,12.87
2019-04-27T10:59:47.600Z,10.17
2019-04-27T11:05:08.076Z,13.03
2019-04-27T11:10:16.320Z,14.33
2019-04-27T11:15:26.397Z,13.73
2019-04-27T11:20:33.874Z,13.43
2019-04-27T11:25:41.228Z,11.10
2019-04-27T11:30:48.464Z,8.83
2019-04-27T11:36:15.402Z,8.50
2019-04-27T11:41:23.582Z,7.08
2019-04-27T11:46:30.917Z,5.22
2019-04-27T11:51:38.341Z,5.47
2019-04-27T11:56:47.229Z,4.85
2019-04-27T12:01:55.932Z,7.05
2019-04-27T12:07:03.704Z,5.95
2019-04-27T12:12:15.983Z,7.03
2019-04-27T12:17:20.992Z,7.62
2019-04-27T12:22:28.440Z,7.20
2019-04-27T12:28:04.803Z,5.50
2019-04-27T12:33:12.478Z,4.10
2019-04-27T12:38:19.917Z,3.62
2019-04-27T12:43:27.270Z,4.50
2019-04-27T12:48:37.162Z,5.00
2019-04-27T12:54:09.066Z,5.03
2019-04-27T12:59:22.783Z,5.20
2019-04-27T13:04:30.935Z,4.73
2019-04-27T13:09:39.370Z,4.57
2019-04-27T13:14:47.302Z,4.23
2019-04-27T13:19:56.072Z,4.70
2019-04-27T13:25:03.538Z,4.40
2019-04-27T13:30:11.864Z,4.50
2019-04-27T13:35:19.502Z,5.10
2019-04-27T13:40:27.688Z,4.93
2019-04-27T13:46:02.399Z,4.77
2019-04-27T13:51:13.154Z,4.90
2019-04-27T13:56:20.753Z,4.50
2019-04-27T14:01:28.583Z,4.77
2019-04-27T14:06:36.445Z,5.60
2019-04-27T14:11:43.850Z,4.63
2019-04-27T14:16:51.246Z,3.93
2019-04-27T14:21:59.717Z,3.67
2019-04-27T14:27:07.526Z,4.33
2019-04-27T14:32:15.413Z,4.07
2019-04-27T14:37:23.262Z,4.10
2019-04-27T14:42:31.330Z,3.77
2019-04-27T14:47:39.927Z,4.47
2019-04-27T14:52:48.652Z,4.47
2019-04-27T14:57:58.544Z,4.57
2019-04-27T15:03:06.020Z,5.00
2019-04-27T15:08:15.216Z,4.83
2019-04-27T15:13:22.675Z,4.70
2019-04-27T15:18:34.620Z,4.20
2019-04-27T15:23:43.784Z,4.80
2019-04-27T15:28:53.018Z,4.30
2019-04-27T15:34:16.538Z,4.37
2019-04-27T15:39:42.116Z,4.37
2019-04-27T15:44:51.033Z,4.47
2019-04-27T15:49:58.953Z,5.20
2019-04-27T15:55:17.778Z,5.30
2019-04-27T16:00:24.684Z,3.40
2019-04-27T16:05:33.367Z,3.97
2019-04-27T16:10:42.084Z,4.07
2019-04-27T16:15:54.118Z,3.90
2019-04-27T16:21:02.767Z,3.60
2019-04-27T16:26:11.003Z,3.40
2019-04-27T16:31:18.705Z,3.17
2019-04-27T16:36:28.884Z,2.90
2019-04-27T16:41:37.450Z,2.93
2019-04-27T16:46:45.714Z,3.63
2019-04-27T16:52:11.641Z,3.57
2019-04-27T16:57:18.429Z,3.47
2019-04-27T17:02:27.458Z,2.67
2019-04-27T17:07:37.503Z,2.00
2019-04-27T17:12:46.020Z,1.70
2019-04-27T17:18:11.837Z,1.33
2019-04-27T17:23:31.249Z,1.27
2019-04-27T17:28:44.329Z,1.40
2019-04-27T17:33:58.649Z,1.43
2019-04-27T17:39:09.460Z,1.20
2019-04-27T17:44:22.671Z,1.37
2019-04-27T17:49:27.965Z,1.70
2019-04-27T17:54:36.158Z,4.07
2019-04-27T17:59:44.894Z,1.87
2019-04-27T18:04:52.433Z,1.50
2019-04-27T18:10:00.002Z,1.60
2019-04-27T18:15:10.494Z,1.90
2019-04-27T18:20:20.102Z,1.50
2019-04-27T18:25:28.610Z,1.30
2019-04-27T18:31:01.018Z,1.93
2019-04-27T18:36:13.659Z,1.80
2019-04-27T18:41:18.359Z,1.43
2019-04-27T18:46:25.779Z,2.33
2019-04-27T18:51:48.361Z,1.30
2019-04-27T18:57:02.839Z,1.60
2019-04-27T19:02:06.179Z,1.60
2019-04-27T19:07:16.445Z,1.83
2019-04-27T19:12:24.081Z,1.70
2019-04-27T19:17:31.957Z,1.80
2019-04-27T19:22:39.780Z,2.30
2019-04-27T19:28:13.671Z,2.20
2019-04-27T19:33:21.319Z,2.00
2019-04-27T19:38:29.207Z,2.10
2019-04-27T19:43:38.374Z,2.27
2019-04-27T19:48:47.339Z,2.47
2019-04-27T19:53:55.037Z,2.20
2019-04-27T19:59:06.039Z,2.40
2019-04-27T20:04:23.416Z,2.60
2019-04-27T20:09:49.959Z,2.47
2019-04-27T20:14:57.999Z,2.60
2019-04-27T20:20:06.783Z,2.40
2019-04-27T20:25:14.869Z,2.40
2019-04-27T20:30:22.476Z,2.70
2019-04-27T20:35:29.955Z,2.57
2019-04-27T20:40:37.578Z,2.50
2019-04-27T20:45:46.993Z,2.50
2019-04-27T20:50:54.780Z,2.57
2019-04-27T20:56:02.483Z,2.57
2019-04-27T21:01:10.107Z,2.30
2019-04-27T21:06:40.790Z,2.53
2019-04-27T21:11:49.612Z,2.50
2019-04-27T21:16:57.225Z,2.50
2019-04-27T21:22:04.877Z,2.50
2019-04-27T21:27:13.017Z,2.87
2019-04-27T21:32:20.883Z,2.57
2019-04-27T21:37:28.510Z,2.77
2019-04-27T21:42:36.238Z,1.83
2019-04-27T21:47:43.913Z,1.87
2019-04-27T21:53:25.940Z,1.90
2019-04-27T21:58:33.553Z,1.70
2019-04-27T22:03:41.326Z,1.60
2019-04-27T22:08:48.860Z,1.30
2019-04-27T22:13:56.582Z,1.00
2019-04-27T22:19:04.731Z,0.90
2019-04-27T22:24:26.071Z,0.90
2019-04-27T22:29:34.063Z,0.80
2019-04-27T22:34:41.972Z,0.73
2019-04-27T22:40:12.072Z,0.70
2019-04-27T22:45:27.301Z,0.70
2019-04-27T22:50:35.166Z,0.60
2019-04-27T22:56:01.689Z,0.80
2019-04-27T23:01:18.923Z,0.70
2019-04-27T23:06:26.862Z,0.70
2019-04-27T23:11:34.626Z,0.83
2019-04-27T23:16:44.103Z,1.10
2019-04-27T23:21:53.275Z,0.80
2019-04-27T23:27:03.584Z,0.90
2019-04-27T23:32:23.688Z,0.90
2019-04-27T23:37:32.478Z,1.00
2019-04-27T23:42:41.631Z,0.93
2019-04-27T23:47:50.627Z,1.00
2019-04-27T23:53:09.405Z,0.90
2019-04-27T23:58:17.104Z,1.03
